Time;durP1;ratioP1;P1;durP2;ratioP2;P2;SDS_P1;SDS_P2;PMS_P1;PMS_P2;Temp;Humidity;BMP_temperature;BMP_pressure;BME280_temperature;BME280_humidity;BME280_pressure;Samples;Min_cycle;Max_cycle;Signal;HPM_P1;HPM_P2
2022/05/03 00:01:24;;;;;;;4.22;2.30;;;;;;;4.29;36.80;99719.41;5073901;28;20047;-78
2022/05/03 00:04:16;;;;;;;9.07;2.20;;;;;;;4.27;36.76;99718.59;5095088;28;20379;-77
2022/05/03 00:06:56;;;;;;;6.05;2.40;;;;;;;4.28;36.52;99721.16;5050878;28;20052;-78
2022/05/03 00:09:43;;;;;;;8.02;2.83;;;;;;;4.30;36.59;99724.59;5077978;28;20382;-79
2022/05/03 00:12:13;;;;;;;6.00;2.47;;;;;;;4.26;36.58;99716.91;5078062;28;20105;-77
2022/05/03 00:14:44;;;;;;;3.65;2.50;;;;;;;4.30;37.01;99723.75;5112933;28;20097;-77
2022/05/03 00:17:14;;;;;;;5.45;2.13;;;;;;;4.21;37.03;99718.88;5077992;28;20554;-78
2022/05/03 00:19:43;;;;;;;11.77;2.10;;;;;;;4.31;37.10;99728.09;5092223;28;20052;-78
2022/05/03 00:22:12;;;;;;;14.03;3.40;;;;;;;4.31;37.10;99730.75;5094479;28;20063;-79
2022/05/03 00:24:39;;;;;;;13.68;2.42;;;;;;;4.26;37.38;99722.19;5077695;28;20048;-78
2022/05/03 00:27:05;;;;;;;11.70;2.78;;;;;;;4.26;37.14;99727.47;5057848;28;20051;-76
2022/05/03 00:29:33;;;;;;;5.75;2.22;;;;;;;4.20;37.27;99722.47;5074329;28;20089;-77
2022/05/03 00:32:02;;;;;;;9.63;2.30;;;;;;;4.23;37.51;99733.75;5092641;28;20562;-78
2022/05/03 00:34:31;;;;;;;4.88;2.40;;;;;;;4.17;37.50;99728.75;5077948;28;20096;-77
2022/05/03 00:36:56;;;;;;;8.93;2.60;;;;;;;4.16;37.47;99728.84;5096093;28;20512;-76
2022/05/03 00:39:22;;;;;;;8.63;2.50;;;;;;;4.11;37.72;99727.28;5096133;28;20170;-77
2022/05/03 00:42:06;;;;;;;5.88;2.72;;;;;;;4.12;38.01;99736.91;5077899;28;20089;-78
2022/05/03 00:44:55;;;;;;;4.93;2.33;;;;;;;4.08;38.01;99740.63;5044739;28;20051;-78
2022/05/03 00:47:29;;;;;;;9.00;2.50;;;;;;;4.09;38.25;99737.06;5061483;28;20418;-78
2022/05/03 00:50:06;;;;;;;6.65;2.60;;;;;;;4.07;38.18;99733.63;5078547;28;20083;-78
2022/05/03 00:52:39;;;;;;;2.63;2.13;;;;;;;4.08;38.44;99734.50;5062161;28;20512;-77
2022/05/03 00:55:54;;;;;;;3.80;2.13;;;;;;;4.12;38.25;99751.94;5079749;28;20044;-78
2022/05/03 00:58:52;;;;;;;12.88;3.03;;;;;;;4.12;38.27;99747.50;5045573;28;20051;-77
2022/05/03 01:01:33;;;;;;;5.32;2.50;;;;;;;4.13;38.08;99748.34;5062547;28;20101;-77
2022/05/03 01:04:32;;;;;;;5.32;2.05;;;;;;;4.08;38.14;99743.28;5061308;28;20066;-78
2022/05/03 01:07:30;;;;;;;8.40;3.05;;;;;;;4.16;37.96;99742.06;5078450;28;20090;-77
2022/05/03 01:10:13;;;;;;;6.47;2.60;;;;;;;4.18;38.07;99734.94;5077879;28;20044;-77
2022/05/03 01:12:51;;;;;;;12.82;2.60;;;;;;;4.24;37.89;99747.84;5061312;28;20040;-77
2022/05/03 01:15:20;;;;;;;10.98;2.80;;;;;;;4.22;37.71;99747.09;5077679;28;20054;-77
2022/05/03 01:18:05;;;;;;;8.15;2.55;;;;;;;4.33;38.06;99760.66;5078088;28;20101;-78
2022/05/03 01:20:50;;;;;;;8.48;3.03;;;;;;;4.37;37.87;99762.22;5040939;28;20048;-77
2022/05/03 01:23:41;;;;;;;9.10;3.33;;;;;;;4.39;38.13;99766.50;5057674;28;20090;-76
2022/05/03 01:26:24;;;;;;;14.88;2.97;;;;;;;4.42;38.43;99754.06;5074645;28;20055;-78
2022/05/03 01:29:10;;;;;;;11.57;2.97;;;;;;;4.45;38.42;99764.50;5072826;28;20474;-77
2022/05/03 01:31:36;;;;;;;6.63;2.78;;;;;;;4.38;38.46;99753.34;5057475;28;20044;-77
2022/05/03 01:34:02;;;;;;;11.07;2.88;;;;;;;4.48;38.68;99769.66;5075209;28;20051;-77
2022/05/03 01:37:10;;;;;;;11.75;2.83;;;;;;;4.43;38.31;99767.22;5075374;28;20052;-77
2022/05/03 01:40:07;;;;;;;5.88;2.50;;;;;;;4.42;38.66;99780.53;5075366;28;20044;-77
2022/05/03 01:42:54;;;;;;;9.38;3.45;;;;;;;4.39;38.91;99773.56;5073701;28;20040;-79
2022/05/03 01:45:30;;;;;;;8.77;2.83;;;;;;;4.36;38.68;99784.31;5074170;28;20079;-76
2022/05/03 01:51:57;;;;;;;12.35;2.63;;;;;;;4.49;38.74;99788.09;4993709;28;20050;-77
2022/05/03 01:54:54;;;;;;;12.55;2.80;;;;;;;4.47;38.65;99797.88;4945336;28;20133;-77
2022/05/03 01:57:44;;;;;;;11.43;3.13;;;;;;;4.44;38.94;99790.13;5050589;28;20040;-78
2022/05/03 02:00:11;;;;;;;8.13;2.90;;;;;;;4.39;38.54;99790.31;5073156;28;20387;-77
2022/05/03 02:03:19;;;;;;;9.70;3.03;;;;;;;4.44;38.77;99791.88;5057295;28;20373;-78
2022/05/03 02:05:54;;;;;;;9.27;3.20;;;;;;;4.43;38.63;99798.97;5057133;28;20056;-78
2022/05/03 02:08:30;;;;;;;8.32;3.17;;;;;;;4.37;39.05;99797.50;5073732;28;20044;-77
2022/05/03 02:11:30;;;;;;;15.48;3.97;;;;;;;4.46;38.67;99796.19;5056899;28;20438;-78
2022/05/03 02:16:57;;;;;;;7.78;3.63;;;;;;;4.65;38.74;99800.59;5056280;28;20044;-78
2022/05/03 02:20:00;;;;;;;8.63;3.60;;;;;;;4.86;38.54;99802.22;5056433;28;20060;-77
2022/05/03 02:22:52;;;;;;;12.07;4.57;;;;;;;4.99;38.01;99800.66;5074266;28;20218;-78
2022/05/03 02:25:27;;;;;;;15.82;3.38;;;;;;;5.11;37.90;99800.06;5073767;28;20139;-78
2022/05/03 02:28:04;;;;;;;15.20;5.40;;;;;;;5.27;37.92;99796.63;5056436;28;20406;-77
2022/05/03 02:30:36;;;;;;;13.27;4.38;;;;;;;5.36;37.80;99796.16;5056250;28;20032;-78
2022/05/03 02:33:23;;;;;;;15.55;3.58;;;;;;;5.46;37.66;99801.84;5056150;28;20047;-78
2022/05/03 02:35:54;;;;;;;12.80;4.82;;;;;;;5.55;37.67;99796.91;5072926;28;20097;-78
2022/05/03 02:38:29;;;;;;;11.43;4.15;;;;;;;5.62;37.66;99796.59;5056095;28;20040;-78
2022/05/03 02:40:57;;;;;;;15.00;3.90;;;;;;;5.72;37.45;99804.00;5072330;28;20044;-78
2022/05/03 02:43:26;;;;;;;13.27;4.55;;;;;;;5.84;37.29;99805.13;5073698;28;20048;-78
2022/05/03 02:46:22;;;;;;;17.87;3.87;;;;;;;5.75;37.44;99793.19;5072759;28;20098;-78
2022/05/03 02:49:11;;;;;;;9.05;3.67;;;;;;;5.75;37.18;99797.66;5072299;28;20445;-78
2022/05/03 02:51:50;;;;;;;18.92;4.93;;;;;;;5.79;37.24;99799.19;5073256;28;20060;-77
2022/05/03 02:54:22;;;;;;;9.95;4.20;;;;;;;5.80;37.37;99798.28;5073426;28;20436;-77
2022/05/03 02:57:20;;;;;;;14.82;4.43;;;;;;;5.92;37.01;99797.66;5071220;28;20049;-78
2022/05/03 03:03:19;;;;;;;21.52;4.43;;;;;;;6.23;36.82;99793.31;5077057;28;20112;-77
2022/05/03 03:05:52;;;;;;;21.20;4.40;;;;;;;6.40;36.90;99795.91;5075557;28;20574;-78
2022/05/03 03:08:21;;;;;;;13.20;4.28;;;;;;;6.54;36.59;99798.66;5075496;28;20134;-79
2022/05/03 03:10:55;;;;;;;18.50;4.25;;;;;;;6.67;36.31;99803.28;5092048;28;20539;-77
2022/05/03 03:13:57;;;;;;;13.57;4.22;;;;;;;6.82;36.32;99802.41;5092012;28;20048;-79
2022/05/03 03:16:31;;;;;;;15.48;4.40;;;;;;;6.88;36.07;99786.09;5091826;28;20054;-79
2022/05/03 03:19:22;;;;;;;17.98;4.63;;;;;;;7.02;35.83;99794.13;5091401;28;20082;-79
2022/05/03 03:21:50;;;;;;;18.88;5.10;;;;;;;7.18;35.71;99799.41;5075303;28;20046;-79
2022/05/03 03:24:19;;;;;;;27.10;6.10;;;;;;;7.28;35.99;99799.72;5091946;28;20388;-79
2022/05/03 03:26:47;;;;;;;41.30;7.22;;;;;;;7.35;35.58;99789.59;5075117;28;20403;-78
2022/05/03 03:29:14;;;;;;;16.17;5.47;;;;;;;7.49;35.58;99797.59;5074842;28;20040;-79
2022/05/03 03:31:42;;;;;;;28.50;6.00;;;;;;;7.65;35.30;99797.53;5074742;28;20040;-79
2022/05/03 03:34:11;;;;;;;15.13;5.80;;;;;;;7.80;35.28;99799.25;5074806;28;20086;-78
2022/05/03 03:36:39;;;;;;;30.35;6.53;;;;;;;7.89;35.33;99796.00;5108988;28;20055;-78
2022/05/03 03:39:05;;;;;;;24.03;7.37;;;;;;;8.02;34.89;99801.44;5074613;28;20040;-78
2022/05/03 03:41:32;;;;;;;17.20;6.40;;;;;;;8.13;35.02;99792.78;5091755;28;20086;-78
2022/05/03 03:43:57;;;;;;;17.10;6.60;;;;;;;8.24;34.63;99793.81;5091210;28;20044;-77
2022/05/03 03:46:23;;;;;;;10.65;5.68;;;;;;;8.37;34.79;99791.25;5074808;28;20039;-78
2022/05/03 03:48:49;;;;;;;15.00;5.43;;;;;;;8.43;34.27;99771.38;5074558;28;20069;-79
2022/05/03 03:51:15;;;;;;;16.65;7.43;;;;;;;8.57;34.36;99775.78;5074471;28;20406;-77
2022/05/03 03:53:42;;;;;;;22.30;6.78;;;;;;;8.65;34.15;99763.72;5074896;28;20085;-81
2022/05/03 03:56:09;;;;;;;13.13;5.55;;;;;;;8.88;34.08;99780.00;5075049;28;20048;-81
2022/05/03 03:58:35;;;;;;;18.15;5.18;;;;;;;8.93;33.66;99773.38;5074496;28;20066;-81
2022/05/03 04:01:01;;;;;;;11.82;4.47;;;;;;;9.27;34.93;99776.47;5092008;28;20044;-82
2022/05/03 04:03:28;;;;;;;20.85;4.30;;;;;;;9.44;33.41;99778.84;5092580;28;20050;-77
2022/05/03 04:05:54;;;;;;;15.93;4.60;;;;;;;9.59;33.00;99782.28;5074583;28;20068;-79
2022/05/03 04:08:20;;;;;;;13.30;4.28;;;;;;;9.70;32.83;99778.84;5076191;28;20086;-78
2022/05/03 04:10:46;;;;;;;9.82;4.05;;;;;;;9.78;32.63;99775.63;5094322;28;20517;-80
2022/05/03 04:13:16;;;;;;;20.02;4.55;;;;;;;9.92;32.46;99773.72;5094589;28;20036;-77
2022/05/03 04:15:42;;;;;;;12.98;3.63;;;;;;;9.98;31.98;99767.94;5094904;28;20040;-80
2022/05/03 04:18:08;;;;;;;13.20;3.88;;;;;;;10.05;32.20;99762.19;5060594;28;20418;-78
2022/05/03 04:20:35;;;;;;;20.65;4.28;;;;;;;10.24;31.59;99767.06;5110902;28;20106;-79
2022/05/03 04:23:01;;;;;;;11.63;4.43;;;;;;;10.42;31.49;99771.97;5095126;28;20498;-82
2022/05/03 04:25:27;;;;;;;14.23;4.22;;;;;;;10.60;31.50;99768.91;5077618;28;20051;-80
2022/05/03 04:27:54;;;;;;;15.32;4.22;;;;;;;10.75;31.25;99773.13;5095899;28;20040;-79
2022/05/03 04:30:20;;;;;;;23.08;4.75;;;;;;;10.75;31.05;99762.41;5096043;28;20040;-79
2022/05/03 04:32:45;;;;;;;12.50;4.57;;;;;;;10.75;31.00;99769.59;5070524;28;20090;-81
2022/05/03 04:35:11;;;;;;;57.05;5.80;;;;;;;10.98;30.89;99770.53;5057730;28;20036;-80
2022/05/03 04:37:37;;;;;;;9.43;5.38;;;;;;;11.12;30.51;99768.53;5057457;28;20510;-81
2022/05/03 04:40:04;;;;;;;8.57;4.10;;;;;;;11.28;30.17;99770.91;5057473;28;20135;-81
2022/05/03 04:42:30;;;;;;;9.15;5.50;;;;;;;11.38;30.00;99766.56;5040836;28;20545;-86
2022/05/03 04:44:56;;;;;;;9.52;4.60;;;;;;;11.57;30.15;99773.19;5074125;28;20139;-81
2022/05/03 04:47:22;;;;;;;18.63;4.90;;;;;;;11.68;29.33;99765.16;5074984;28;20063;-85
2022/05/03 04:49:48;;;;;;;14.30;5.57;;;;;;;11.77;29.72;99761.78;5040848;28;20040;-79
2022/05/03 04:52:15;;;;;;;17.63;5.78;;;;;;;11.89;30.25;99760.00;5074079;28;20044;-80
2022/05/03 04:54:41;;;;;;;12.25;6.05;;;;;;;12.02;29.26;99770.59;5040445;28;20083;-78
2022/05/03 04:57:07;;;;;;;13.40;5.93;;;;;;;12.08;29.29;99752.22;5075455;28;20055;-80
2022/05/03 04:59:35;;;;;;;15.23;5.57;;;;;;;12.22;29.60;99753.75;5076927;28;20047;-78
2022/05/03 05:02:01;;;;;;;19.13;4.30;;;;;;;12.39;28.29;99747.06;5076716;28;20139;-79
2022/05/03 05:04:27;;;;;;;11.63;4.60;;;;;;;12.45;28.21;99754.63;5073463;28;20156;-78
2022/05/03 05:06:53;;;;;;;13.77;3.63;;;;;;;12.59;27.99;99750.78;5058428;28;20494;-79
2022/05/03 05:09:19;;;;;;;5.65;2.70;;;;;;;12.66;26.79;99754.66;5073526;28;20050;-80
2022/05/03 05:11:45;;;;;;;6.38;3.00;;;;;;;12.64;27.18;99741.41;5056752;28;20081;-79
2022/05/03 05:14:11;;;;;;;5.82;2.58;;;;;;;12.68;26.34;99733.97;5040469;28;20047;-78
2022/05/03 05:16:36;;;;;;;5.93;2.20;;;;;;;12.75;26.25;99732.47;5073895;28;20036;-79
2022/05/03 05:19:03;;;;;;;8.20;2.05;;;;;;;12.85;24.79;99741.44;5039189;28;20105;-78
2022/05/03 05:21:28;;;;;;;10.57;2.40;;;;;;;12.93;25.91;99729.22;5074415;28;20043;-79
2022/05/03 05:23:54;;;;;;;18.63;2.92;;;;;;;13.10;26.11;99720.63;5056730;28;20036;-80
2022/05/03 05:26:20;;;;;;;5.05;2.10;;;;;;;13.23;24.46;99721.28;5073604;28;20060;-79
2022/05/03 05:28:46;;;;;;;6.28;2.13;;;;;;;13.13;24.94;99715.00;5074566;28;20055;-80
2022/05/03 05:31:12;;;;;;;1.75;1.60;;;;;;;13.26;24.97;99715.66;5056479;28;20488;-80
2022/05/03 05:33:38;;;;;;;8.55;1.65;;;;;;;13.49;24.38;99715.53;5057090;28;20040;-80
2022/05/03 05:36:04;;;;;;;3.00;2.00;;;;;;;13.61;24.41;99711.78;5057004;28;20048;-82
2022/05/03 05:38:30;;;;;;;7.55;2.28;;;;;;;13.66;24.29;99709.56;5074686;28;20052;-80
2022/05/03 05:40:56;;;;;;;7.03;1.75;;;;;;;13.84;24.45;99709.75;5074778;28;20395;-82
2022/05/03 05:43:22;;;;;;;6.70;2.03;;;;;;;14.00;23.58;99704.75;5073423;28;20036;-81
2022/05/03 05:45:48;;;;;;;3.80;1.80;;;;;;;13.99;23.70;99695.00;5056771;28;20520;-81
2022/05/03 05:48:14;;;;;;;1.77;1.52;;;;;;;14.07;23.69;99707.75;5056766;28;20055;-79
2022/05/03 05:50:40;;;;;;;2.95;1.60;;;;;;;14.13;23.54;99698.28;5073571;28;20048;-78
2022/05/03 05:55:51;;;;;;;6.47;2.05;;;;;;;14.57;23.41;99705.06;5074209;28;20472;-80
2022/05/03 05:58:20;;;;;;;7.95;1.95;;;;;;;14.49;22.14;99694.13;5071989;28;20068;-81
2022/05/03 06:01:13;;;;;;;8.05;2.00;;;;;;;14.09;22.77;99660.06;5054398;28;20471;-78
2022/05/03 06:03:43;;;;;;;3.45;2.05;;;;;;;14.33;22.70;99683.94;5071273;28;20045;-79
2022/05/03 06:06:39;;;;;;;;;;;;;;;;;;;;;
2022/05/03 06:09:58;;;;;;;;;;;;;;;;;;;;;
2022/05/03 06:12:22;;;;;;;12.57;2.20;;;;;;;14.75;22.34;99684.56;5071342;28;20043;-79
2022/05/03 06:14:48;;;;;;;2.83;1.50;;;;;;;14.70;22.09;99692.19;5070674;28;20040;-82
2022/05/03 06:17:17;;;;;;;2.95;1.55;;;;;;;14.91;22.20;99688.53;5037548;28;20490;-81
2022/05/03 06:19:48;;;;;;;8.18;1.80;;;;;;;14.38;21.68;99678.13;5053874;28;20190;-82
2022/05/03 06:22:45;;;;;;;2.92;1.80;;;;;;;13.99;22.15;99654.69;5069649;28;20135;-79
2022/05/03 06:25:11;;;;;;;7.05;1.85;;;;;;;13.99;22.30;99638.56;5054628;28;20044;-79
2022/05/03 06:27:38;;;;;;;6.28;1.70;;;;;;;14.51;22.36;99659.91;5073704;28;20047;-78
2022/05/03 06:30:06;;;;;;;8.20;1.92;;;;;;;14.87;23.15;99679.88;5090622;28;20051;-79
2022/05/03 06:32:32;;;;;;;4.10;1.90;;;;;;;15.09;22.73;99678.75;5073061;28;20050;-80
2022/05/03 06:35:02;;;;;;;7.82;1.88;;;;;;;15.07;21.98;99640.34;5091652;28;20518;-85
2022/05/03 06:37:29;;;;;;;7.90;1.60;;;;;;;14.78;22.01;99621.50;5089712;28;20398;-80
2022/05/03 06:39:55;;;;;;;6.28;1.40;;;;;;;15.12;22.33;99670.38;5036588;28;20491;-79
2022/05/03 06:42:21;;;;;;;1.95;1.60;;;;;;;15.08;21.76;99623.19;5053355;28;20123;-78
2022/05/03 06:44:47;;;;;;;2.95;1.70;;;;;;;15.59;21.91;99665.00;5053573;28;20055;-80
2022/05/03 06:47:15;;;;;;;4.30;1.88;;;;;;;15.72;21.39;99660.19;5037496;28;20040;-83
2022/05/03 06:49:43;;;;;;;6.53;2.35;;;;;;;15.73;21.72;99653.78;5055651;28;20044;-83
2022/05/03 06:52:09;;;;;;;3.78;1.60;;;;;;;15.96;22.02;99659.66;5082152;28;20047;-87
2022/05/03 06:54:34;;;;;;;3.85;1.48;;;;;;;16.16;21.56;99662.25;5073613;28;20052;-79
2022/05/03 06:57:00;;;;;;;2.28;1.50;;;;;;;15.96;21.25;99651.56;5038866;28;20045;-82
2022/05/03 06:59:26;;;;;;;1.98;1.65;;;;;;;16.02;21.58;99653.66;5058247;28;20093;-82
2022/05/03 07:01:52;;;;;;;3.90;1.73;;;;;;;16.08;21.17;99646.81;5090399;28;20521;-83
2022/05/03 07:04:18;;;;;;;5.75;1.80;;;;;;;15.96;21.21;99653.41;5091726;28;20036;-84
2022/05/03 07:06:45;;;;;;;11.00;1.65;;;;;;;16.16;21.28;99643.34;5074803;28;20559;-83
2022/05/03 07:09:10;;;;;;;5.50;1.60;;;;;;;16.31;20.66;99630.19;5093737;28;20086;-83
2022/05/03 07:11:36;;;;;;;8.55;1.90;;;;;;;16.55;20.81;99641.25;5075249;28;20036;-83
2022/05/03 07:14:03;;;;;;;5.25;1.60;;;;;;;16.72;20.41;99623.34;5092823;28;20495;-82
2022/05/03 07:16:29;;;;;;;1.20;1.10;;;;;;;16.81;19.28;99627.84;5092324;28;20153;-79
2022/05/03 07:24:24;;;;;;;5.10;1.90;;;;;;;16.83;19.56;99625.00;5092275;28;20093;-78
2022/05/03 07:26:50;;;;;;;4.63;1.40;;;;;;;16.64;19.34;99623.28;5092001;28;20048;-77
2022/05/03 07:29:16;;;;;;;3.85;1.38;;;;;;;16.73;20.60;99608.84;5090457;28;20071;-78
2022/05/03 07:31:41;;;;;;;6.20;1.20;;;;;;;17.04;19.47;99611.16;5091108;28;20079;-77
2022/05/03 07:34:09;;;;;;;2.65;1.00;;;;;;;17.31;19.66;99613.72;5074024;28;20045;-78
2022/05/03 07:36:35;;;;;;;1.92;1.38;;;;;;;17.54;19.32;99613.16;5070262;28;20036;-78
2022/05/03 07:39:01;;;;;;;8.15;1.17;;;;;;;17.46;18.58;99619.38;5054471;28;20040;-78
2022/05/03 07:41:26;;;;;;;2.00;1.30;;;;;;;17.12;18.48;99598.56;5070967;28;20052;-78
2022/05/03 07:43:52;;;;;;;8.80;1.20;;;;;;;17.26;18.41;99598.97;5040365;28;20044;-77
2022/05/03 07:46:18;;;;;;;3.75;1.42;;;;;;;17.40;18.26;99596.53;5058426;28;20100;-79
2022/05/03 07:48:44;;;;;;;1.98;1.20;;;;;;;17.42;18.43;99586.41;5075438;28;20427;-79
2022/05/03 07:51:12;;;;;;;2.47;1.17;;;;;;;17.57;18.14;99599.34;5042240;28;20064;-80
2022/05/03 07:53:41;;;;;;;7.47;1.42;;;;;;;17.54;17.96;99591.53;5058108;28;20047;-80
2022/05/03 07:56:09;;;;;;;2.03;1.10;;;;;;;17.73;17.68;99575.91;5075004;28;20048;-78
2022/05/03 07:58:35;;;;;;;1.25;1.15;;;;;;;17.66;17.86;99574.88;5074618;28;20136;-80
2022/05/03 08:01:03;;;;;;;3.35;1.63;;;;;;;17.52;18.18;99583.56;5057794;28;20044;-79
2022/05/03 08:03:29;;;;;;;5.93;1.42;;;;;;;17.64;17.95;99563.38;5073578;28;20415;-78
2022/05/03 08:05:54;;;;;;;5.45;1.38;;;;;;;17.85;18.22;99565.69;5041188;28;20181;-79
2022/05/03 08:08:20;;;;;;;15.52;1.85;;;;;;;18.09;18.11;99569.44;5041578;28;20093;-81
2022/05/03 08:10:47;;;;;;;14.57;1.92;;;;;;;18.18;17.09;99571.19;5074676;28;20044;-79
2022/05/03 08:13:13;;;;;;;16.73;2.08;;;;;;;18.24;17.60;99583.19;5073619;28;20147;-78
2022/05/03 08:15:39;;;;;;;4.82;1.33;;;;;;;18.25;17.07;99565.97;5057624;28;20056;-80
2022/05/03 08:18:06;;;;;;;1.42;1.20;;;;;;;18.34;17.25;99565.78;5057216;28;20044;-80
2022/05/03 08:20:32;;;;;;;10.25;1.77;;;;;;;18.44;17.17;99558.38;5040243;28;20487;-79
2022/05/03 08:23:02;;;;;;;6.28;1.48;;;;;;;18.36;17.61;99554.81;5057559;28;20207;-80
2022/05/03 08:25:28;;;;;;;9.88;1.90;;;;;;;18.55;17.28;99554.47;5057743;28;20048;-80
2022/05/03 08:27:55;;;;;;;16.38;1.95;;;;;;;18.67;17.14;99555.00;5041657;28;20480;-80
2022/05/03 08:30:21;;;;;;;24.45;3.08;;;;;;;18.82;16.99;99560.59;5073696;28;20045;-79
2022/05/03 08:32:47;;;;;;;6.57;1.60;;;;;;;18.92;16.90;99550.44;5057289;28;20036;-87
2022/05/03 08:35:14;;;;;;;8.55;1.73;;;;;;;18.77;16.54;99547.56;5058711;28;20052;-86
2022/05/03 08:43:09;;;;;;;9.15;1.90;;;;;;;19.24;16.24;99543.25;5057388;28;20506;-82
2022/05/03 08:45:35;;;;;;;4.05;1.67;;;;;;;19.27;15.85;99537.50;5057310;28;20057;-80
2022/05/03 08:48:01;;;;;;;3.42;1.42;;;;;;;19.45;16.16;99546.25;5057423;28;20040;-79
2022/05/03 08:50:29;;;;;;;5.78;1.50;;;;;;;19.13;16.06;99520.91;5057948;28;20045;-79
2022/05/03 08:52:59;;;;;;;5.00;1.90;;;;;;;18.91;16.45;99527.91;5074110;28;20044;-79
2022/05/03 08:55:25;;;;;;;4.00;1.45;;;;;;;19.32;16.57;99532.38;5040639;28;20036;-79
2022/05/03 08:57:51;;;;;;;13.52;1.92;;;;;;;19.48;16.81;99526.88;5041043;28;20458;-78
2022/05/03 09:00:19;;;;;;;4.95;1.75;;;;;;;19.77;16.48;99520.03;5083250;28;20039;-79
2022/05/03 09:02:56;;;;;;;9.80;1.90;;;;;;;19.90;15.74;99509.44;5082473;28;20491;-79
2022/05/03 09:05:23;;;;;;;4.30;1.38;;;;;;;20.19;16.13;99514.16;5083778;28;20091;-81
2022/05/03 09:07:52;;;;;;;6.53;1.67;;;;;;;20.31;15.43;99512.75;5100212;28;20450;-79
2022/05/03 09:10:20;;;;;;;13.20;2.00;;;;;;;20.40;15.48;99508.06;5065404;28;20036;-79
2022/05/03 09:12:49;;;;;;;20.10;2.75;;;;;;;20.09;15.28;99500.84;5089778;28;20040;-80
2022/05/03 09:15:25;;;;;;;;;;;;;;;19.98;15.74;99512.13;5074391;28;20047;-79
2022/05/03 09:17:51;;;;;;;10.95;1.77;;;;;;;20.37;16.29;99503.00;5086253;28;19922;-80
2022/05/03 09:26:21;;;;;;;6.70;1.63;;;;;;;20.65;14.74;99506.03;5074566;28;20047;-78
2022/05/03 09:29:05;;;;;;;2.90;1.30;;;;;;;20.55;14.69;99490.00;5083417;28;20040;-80
2022/05/03 09:31:43;;;;;;;4.38;1.42;;;;;;;20.35;15.19;99500.47;5097204;28;20039;-79
2022/05/03 09:34:25;;;;;;;14.60;2.33;;;;;;;20.54;15.52;99492.91;5066418;28;20662;-79
2022/05/03 09:36:59;;;;;;;9.70;1.45;;;;;;;20.49;14.88;99484.41;5078484;28;20407;-79
2022/05/03 09:39:30;;;;;;;3.40;1.30;;;;;;;20.69;15.31;99484.78;5047437;28;20119;-78
2022/05/03 09:42:09;;;;;;;8.88;1.20;;;;;;;21.04;15.27;99478.63;5064953;28;20040;-78
2022/05/03 09:44:40;;;;;;;11.23;1.73;;;;;;;21.53;14.85;99474.50;5060847;28;20044;-77
2022/05/03 09:47:09;;;;;;;7.97;1.30;;;;;;;21.82;14.48;99458.13;5082467;28;20121;-79
2022/05/03 09:49:40;;;;;;;13.48;1.42;;;;;;;22.17;13.88;99473.78;5095982;28;20044;-78
2022/05/03 09:52:12;;;;;;;7.53;1.50;;;;;;;22.16;13.60;99478.38;5066414;28;20123;-78
2022/05/03 09:54:51;;;;;;;6.97;1.42;;;;;;;22.29;13.93;99475.78;5098348;28;20490;-78
2022/05/03 09:57:24;;;;;;;9.35;1.42;;;;;;;22.24;14.02;99474.69;5082514;28;20555;-78
2022/05/03 09:59:52;;;;;;;7.50;1.73;;;;;;;22.49;13.88;99451.47;5063732;28;20039;-79
2022/05/03 10:02:20;;;;;;;3.75;1.33;;;;;;;22.07;13.21;99472.19;5083080;28;20047;-80
2022/05/03 10:04:47;;;;;;;7.30;1.27;;;;;;;22.01;13.96;99456.63;5068116;28;20414;-78
2022/05/03 10:07:14;;;;;;;3.65;1.40;;;;;;;21.96;14.08;99453.63;5081610;28;20044;-79
2022/05/03 10:09:42;;;;;;;5.97;1.35;;;;;;;22.15;13.83;99448.63;5096627;28;20081;-79
2022/05/03 10:12:11;;;;;;;12.38;3.20;;;;;;;22.70;14.29;99447.00;5082495;28;20054;-78
2022/05/03 10:14:41;;;;;;;4.45;1.33;;;;;;;23.29;13.55;99454.72;5057909;28;20139;-80
2022/05/03 10:20:46;;;;;;;2.22;1.17;;;;;;;22.34;14.02;99449.84;5087840;28;20087;-77
2022/05/03 10:23:19;;;;;;;3.40;1.05;;;;;;;21.66;13.72;99439.28;5060134;28;20036;-80
2022/05/03 10:25:45;;;;;;;8.70;1.63;;;;;;;21.95;14.36;99427.47;5060153;28;20047;-80
2022/05/03 10:28:11;;;;;;;6.80;1.40;;;;;;;22.66;13.71;99445.72;5053637;28;20521;-78
2022/05/03 10:30:40;;;;;;;21.65;1.92;;;;;;;23.02;13.11;99437.41;5102858;28;20097;-79
2022/05/03 10:33:23;;;;;;;14.35;1.40;;;;;;;23.54;12.89;99422.28;5102015;28;20032;-80
2022/05/03 10:35:51;;;;;;;11.65;1.23;;;;;;;23.78;12.28;99431.03;5076825;28;20153;-85
2022/05/03 10:38:37;;;;;;;4.20;1.10;;;;;;;23.85;12.34;99419.06;5059331;28;20093;-81
2022/05/03 10:41:11;;;;;;;4.18;1.10;;;;;;;24.15;13.14;99414.06;5076258;28;20047;-80
2022/05/03 10:43:38;;;;;;;4.05;1.33;;;;;;;24.77;12.83;99417.44;5069790;28;20036;-84
2022/05/03 10:46:12;;;;;;;1.98;1.17;;;;;;;25.31;12.61;99424.47;5065400;28;20138;-79
2022/05/03 10:48:41;;;;;;;6.20;1.27;;;;;;;25.35;12.37;99419.38;5058943;28;20062;-80
2022/05/03 10:51:10;;;;;;;7.90;1.40;;;;;;;24.89;12.49;99415.72;5074813;28;20097;-80
2022/05/03 10:53:38;;;;;;;27.10;2.75;;;;;;;23.78;13.55;99412.75;5075004;28;20063;-82
2022/05/03 10:56:08;;;;;;;21.67;2.13;;;;;;;24.66;13.64;99415.34;5061157;28;20050;-85
2022/05/03 10:58:36;;;;;;;3.17;1.30;;;;;;;25.63;12.55;99399.91;5086283;28;20043;-84
2022/05/03 11:01:17;;;;;;;3.75;1.23;;;;;;;26.02;13.07;99408.94;5083133;28;20067;-85
2022/05/03 11:03:51;;;;;;;15.65;1.75;;;;;;;26.23;12.19;99389.41;5089489;28;20047;-83
2022/05/03 11:06:21;;;;;;;6.05;0.98;;;;;;;26.64;12.85;99396.25;5087416;28;20051;-83
2022/05/03 11:11:38;;;;;;;1.65;1.05;;;;;;;27.45;11.04;99397.03;5095365;28;20074;-85
2022/05/03 11:14:05;;;;;;;1.80;1.05;;;;;;;27.79;10.96;99382.63;5059236;28;20054;-84
2022/05/03 11:16:34;;;;;;;2.08;1.40;;;;;;;27.24;11.05;99374.50;5074721;28;20408;-80
2022/05/03 11:19:13;;;;;;;9.55;1.20;;;;;;;27.59;11.46;99382.06;5073325;28;20056;-78
2022/05/03 11:21:40;;;;;;;10.10;1.20;;;;;;;25.89;11.24;99383.34;5076205;28;20094;-80
2022/05/03 11:24:30;;;;;;;4.68;1.42;;;;;;;26.26;11.24;99367.03;5074946;28;20040;-79
2022/05/03 11:26:58;;;;;;;1.90;0.98;;;;;;;25.47;11.39;99384.00;5075370;28;20036;-78
2022/05/03 11:29:57;;;;;;;7.73;1.30;;;;;;;25.50;11.95;99365.25;5097863;28;20040;-82
2022/05/03 11:32:37;;;;;;;1.13;1.08;;;;;;;25.62;11.78;99351.69;5053452;28;20105;-79
2022/05/03 11:35:20;;;;;;;5.82;1.02;;;;;;;25.38;11.22;99381.47;5091863;28;20040;-79
2022/05/03 11:38:02;;;;;;;2.75;0.80;;;;;;;24.30;12.06;99367.44;5041480;28;20040;-79
2022/05/03 11:40:28;;;;;;;3.63;1.00;;;;;;;24.10;12.39;99361.94;5057938;28;20044;-79
2022/05/03 11:42:54;;;;;;;3.47;1.08;;;;;;;24.01;12.02;99346.00;5041370;28;20516;-77
2022/05/03 11:45:20;;;;;;;1.52;1.00;;;;;;;24.03;12.58;99365.72;5074517;28;20522;-80
2022/05/03 11:47:51;;;;;;;1.92;1.02;;;;;;;24.35;12.10;99348.50;5041266;28;20418;-79
2022/05/03 11:56:07;;;;;;;14.40;1.73;;;;;;;27.98;11.06;99324.88;5053763;28;20569;-81
2022/05/03 11:58:36;;;;;;;6.05;1.30;;;;;;;28.95;11.14;99335.38;5075580;28;20033;-80
2022/05/03 12:01:14;;;;;;;10.07;1.48;;;;;;;29.57;10.31;99327.31;5060669;28;20057;-83
2022/05/03 12:03:47;;;;;;;3.90;1.33;;;;;;;29.87;9.49;99331.72;5054207;28;20036;-83
2022/05/03 12:06:15;;;;;;;3.35;0.90;;;;;;;30.15;9.49;99331.66;5036656;28;20151;-82
2022/05/03 12:08:41;;;;;;;9.73;1.52;;;;;;;30.55;9.74;99344.44;5053904;28;20055;-81
2022/05/03 12:11:21;;;;;;;2.67;1.00;;;;;;;30.88;9.29;99334.41;5037967;28;20114;-81
2022/05/03 12:13:47;;;;;;;1.10;0.73;;;;;;;31.32;9.13;99323.41;5037246;28;20072;-81
2022/05/03 12:16:16;;;;;;;3.53;1.10;;;;;;;31.33;8.88;99323.16;5056245;28;20044;-81
2022/05/03 12:18:46;;;;;;;5.20;1.10;;;;;;;30.05;8.84;99323.19;5064885;28;20534;-80
2022/05/03 12:21:14;;;;;;;3.10;1.17;;;;;;;27.39;10.36;99326.59;5037509;28;20051;-80
2022/05/03 12:23:45;;;;;;;12.32;1.40;;;;;;;26.14;11.31;99341.44;5082623;28;20461;-85
2022/05/03 12:26:20;;;;;;;8.35;1.10;;;;;;;24.89;12.18;99283.63;5100354;28;20039;-80
2022/05/03 12:29:12;;;;;;;9.05;1.33;;;;;;;26.96;11.50;99311.91;5075093;28;20051;-80
2022/05/03 12:31:43;;;;;;;2.15;1.08;;;;;;;27.90;10.94;99314.22;5087089;28;20051;-80
2022/05/03 12:34:11;;;;;;;3.45;1.30;;;;;;;29.20;10.59;99311.19;5057101;28;20101;-79
2022/05/03 12:36:40;;;;;;;5.35;1.35;;;;;;;30.08;9.68;99306.16;5070020;28;20042;-79
2022/05/03 12:39:11;;;;;;;;;;;;;;;29.28;9.77;99308.03;5105725;28;20044;-78
2022/05/03 12:41:38;;;;;;;54.33;2.97;;;;;;;29.44;9.96;99302.81;5088815;28;20012;-79